sensor_id;sensor_type;location;lat;lon;timestamp;P1;durP1;ratioP1;P2;durP2;ratioP2
69953;SDS011;57276;51.364;12.376;2023-08-01T00:00:14;8.45;;;3.50;;
69953;SDS011;57276;51.364;12.376;2023-08-01T00:06:17;10.37;;;3.40;;
69953;SDS011;57276;51.364;12.376;2023-08-01T00:12:21;7.70;;;3.15;;
69953;SDS011;57276;51.364;12.376;2023-08-01T00:18:23;7.30;;;3.03;;
69953;SDS011;57276;51.364;12.376;2023-08-01T00:24:24;7.70;;;3.43;;
69953;SDS011;57276;51.364;12.376;2023-08-01T00:30:26;8.98;;;3.58;;
69953;SDS011;57276;51.364;12.376;2023-08-01T00:36:27;7.47;;;3.13;;
69953;SDS011;57276;51.364;12.376;2023-08-01T00:42:29;7.28;;;3.20;;
69953;SDS011;57276;51.364;12.376;2023-08-01T00:48:31;7.18;;;3.05;;
69953;SDS011;57276;51.364;12.376;2023-08-01T00:54:32;7.53;;;3.10;;
69953;SDS011;57276;51.364;12.376;2023-08-01T01:00:37;6.63;;;2.60;;
69953;SDS011;57276;51.364;12.376;2023-08-01T01:06:51;9.50;;;3.07;;
69953;SDS011;57276;51.364;12.376;2023-08-01T01:12:54;5.60;;;2.72;;
69953;SDS011;57276;51.364;12.376;2023-08-01T01:18:56;7.85;;;2.97;;
69953;SDS011;57276;51.364;12.376;2023-08-01T01:24:58;5.87;;;2.80;;
69953;SDS011;57276;51.364;12.376;2023-08-01T01:31:00;6.57;;;2.92;;
69953;SDS011;57276;51.364;12.376;2023-08-01T01:37:03;6.30;;;2.50;;
69953;SDS011;57276;51.364;12.376;2023-08-01T01:43:04;7.47;;;2.88;;
69953;SDS011;57276;51.364;12.376;2023-08-01T01:49:06;7.35;;;2.80;;
69953;SDS011;57276;51.364;12.376;2023-08-01T01:55:08;9.10;;;2.97;;
69953;SDS011;57276;51.364;12.376;2023-08-01T02:01:19;5.85;;;2.80;;
69953;SDS011;57276;51.364;12.376;2023-08-01T02:07:21;7.60;;;3.20;;
69953;SDS011;57276;51.364;12.376;2023-08-01T02:13:23;6.43;;;2.97;;
69953;SDS011;57276;51.364;12.376;2023-08-01T02:19:25;7.03;;;3.00;;
69953;SDS011;57276;51.364;12.376;2023-08-01T02:25:26;7.00;;;3.00;;
69953;SDS011;57276;51.364;12.376;2023-08-01T02:31:28;8.38;;;3.22;;
69953;SDS011;57276;51.364;12.376;2023-08-01T02:37:30;7.47;;;2.93;;
69953;SDS011;57276;51.364;12.376;2023-08-01T02:43:31;7.00;;;3.05;;
69953;SDS011;57276;51.364;12.376;2023-08-01T02:49:33;6.78;;;2.83;;
69953;SDS011;57276;51.364;12.376;2023-08-01T02:55:35;6.30;;;2.50;;
69953;SDS011;57276;51.364;12.376;2023-08-01T03:01:37;6.35;;;2.95;;
69953;SDS011;57276;51.364;12.376;2023-08-01T03:07:39;7.30;;;2.60;;
69953;SDS011;57276;51.364;12.376;2023-08-01T03:13:42;6.57;;;2.28;;
69953;SDS011;57276;51.364;12.376;2023-08-01T03:19:43;6.30;;;2.45;;
69953;SDS011;57276;51.364;12.376;2023-08-01T03:25:45;6.97;;;2.40;;
69953;SDS011;57276;51.364;12.376;2023-08-01T03:31:46;5.70;;;2.40;;
69953;SDS011;57276;51.364;12.376;2023-08-01T03:37:48;5.13;;;2.47;;
69953;SDS011;57276;51.364;12.376;2023-08-01T03:43:50;5.68;;;2.15;;
69953;SDS011;57276;51.364;12.376;2023-08-01T03:49:51;5.82;;;2.17;;
69953;SDS011;57276;51.364;12.376;2023-08-01T03:55:53;5.20;;;2.10;;
69953;SDS011;57276;51.364;12.376;2023-08-01T04:01:54;5.32;;;2.40;;
69953;SDS011;57276;51.364;12.376;2023-08-01T04:07:56;7.97;;;2.50;;
69953;SDS011;57276;51.364;12.376;2023-08-01T04:13:58;4.72;;;2.30;;
69953;SDS011;57276;51.364;12.376;2023-08-01T04:19:59;6.72;;;2.42;;
69953;SDS011;57276;51.364;12.376;2023-08-01T04:26:01;5.23;;;2.33;;
69953;SDS011;57276;51.364;12.376;2023-08-01T04:32:03;6.28;;;2.50;;
69953;SDS011;57276;51.364;12.376;2023-08-01T04:38:04;5.77;;;2.63;;
69953;SDS011;57276;51.364;12.376;2023-08-01T04:44:06;4.97;;;2.45;;
69953;SDS011;57276;51.364;12.376;2023-08-01T04:50:07;5.18;;;2.20;;
69953;SDS011;57276;51.364;12.376;2023-08-01T04:56:09;4.50;;;2.00;;
69953;SDS011;57276;51.364;12.376;2023-08-01T05:02:11;5.78;;;2.20;;
69953;SDS011;57276;51.364;12.376;2023-08-01T05:08:12;4.53;;;2.00;;
69953;SDS011;57276;51.364;12.376;2023-08-01T05:14:14;7.07;;;2.50;;
69953;SDS011;57276;51.364;12.376;2023-08-01T05:20:15;6.32;;;2.03;;
69953;SDS011;57276;51.364;12.376;2023-08-01T05:26:17;5.63;;;2.00;;
69953;SDS011;57276;51.364;12.376;2023-08-01T05:32:19;5.82;;;2.20;;
69953;SDS011;57276;51.364;12.376;2023-08-01T05:38:20;6.80;;;1.87;;
69953;SDS011;57276;51.364;12.376;2023-08-01T05:44:22;6.47;;;2.00;;
69953;SDS011;57276;51.364;12.376;2023-08-01T05:50:24;7.60;;;1.80;;
69953;SDS011;57276;51.364;12.376;2023-08-01T05:56:25;7.80;;;1.87;;
69953;SDS011;57276;51.364;12.376;2023-08-01T06:02:27;5.00;;;1.77;;
69953;SDS011;57276;51.364;12.376;2023-08-01T06:08:28;6.40;;;1.63;;
69953;SDS011;57276;51.364;12.376;2023-08-01T06:14:30;3.35;;;1.33;;
69953;SDS011;57276;51.364;12.376;2023-08-01T06:20:32;4.15;;;1.35;;
69953;SDS011;57276;51.364;12.376;2023-08-01T06:26:33;4.60;;;1.27;;
69953;SDS011;57276;51.364;12.376;2023-08-01T06:32:35;3.33;;;1.20;;
69953;SDS011;57276;51.364;12.376;2023-08-01T06:38:38;4.17;;;1.33;;
69953;SDS011;57276;51.364;12.376;2023-08-01T06:44:40;3.83;;;1.13;;
69953;SDS011;57276;51.364;12.376;2023-08-01T06:50:42;2.70;;;0.80;;
69953;SDS011;57276;51.364;12.376;2023-08-01T06:56:43;4.13;;;0.90;;
69953;SDS011;57276;51.364;12.376;2023-08-01T07:02:51;2.97;;;0.80;;
69953;SDS011;57276;51.364;12.376;2023-08-01T07:08:53;4.63;;;0.70;;
69953;SDS011;57276;51.364;12.376;2023-08-01T07:14:54;5.03;;;1.05;;
69953;SDS011;57276;51.364;12.376;2023-08-01T07:21:00;4.07;;;0.60;;
69953;SDS011;57276;51.364;12.376;2023-08-01T07:27:01;3.73;;;0.77;;
69953;SDS011;57276;51.364;12.376;2023-08-01T07:33:03;2.55;;;0.68;;
69953;SDS011;57276;51.364;12.376;2023-08-01T07:39:05;8.60;;;0.70;;
69953;SDS011;57276;51.364;12.376;2023-08-01T07:45:06;6.28;;;0.70;;
69953;SDS011;57276;51.364;12.376;2023-08-01T07:51:09;3.30;;;0.70;;
69953;SDS011;57276;51.364;12.376;2023-08-01T07:57:12;2.27;;;0.60;;
69953;SDS011;57276;51.364;12.376;2023-08-01T08:03:14;2.63;;;0.68;;
69953;SDS011;57276;51.364;12.376;2023-08-01T08:09:15;2.70;;;0.70;;
69953;SDS011;57276;51.364;12.376;2023-08-01T08:15:17;2.67;;;0.57;;
69953;SDS011;57276;51.364;12.376;2023-08-01T08:21:19;3.63;;;0.80;;
69953;SDS011;57276;51.364;12.376;2023-08-01T08:27:20;3.80;;;0.73;;
69953;SDS011;57276;51.364;12.376;2023-08-01T08:33:22;2.28;;;0.63;;
69953;SDS011;57276;51.364;12.376;2023-08-01T08:39:24;4.40;;;1.00;;
69953;SDS011;57276;51.364;12.376;2023-08-01T08:45:25;4.13;;;0.60;;
69953;SDS011;57276;51.364;12.376;2023-08-01T08:51:27;2.63;;;0.73;;
69953;SDS011;57276;51.364;12.376;2023-08-01T08:57:29;3.27;;;0.70;;
69953;SDS011;57276;51.364;12.376;2023-08-01T09:03:31;4.55;;;0.60;;
69953;SDS011;57276;51.364;12.376;2023-08-01T09:09:33;2.97;;;0.70;;
69953;SDS011;57276;51.364;12.376;2023-08-01T09:15:35;3.22;;;0.60;;
69953;SDS011;57276;51.364;12.376;2023-08-01T09:21:38;2.72;;;0.80;;
69953;SDS011;57276;51.364;12.376;2023-08-01T09:27:40;3.17;;;0.90;;
69953;SDS011;57276;51.364;12.376;2023-08-01T09:33:42;3.75;;;0.90;;
69953;SDS011;57276;51.364;12.376;2023-08-01T09:39:43;2.60;;;0.80;;
69953;SDS011;57276;51.364;12.376;2023-08-01T09:45:51;3.42;;;0.88;;
69953;SDS011;57276;51.364;12.376;2023-08-01T09:51:52;3.50;;;1.00;;
69953;SDS011;57276;51.364;12.376;2023-08-01T09:57:56;4.73;;;1.27;;
69953;SDS011;57276;51.364;12.376;2023-08-01T10:03:58;4.00;;;0.90;;
69953;SDS011;57276;51.364;12.376;2023-08-01T10:10:00;2.50;;;0.60;;
69953;SDS011;57276;51.364;12.376;2023-08-01T10:16:04;4.55;;;0.60;;
69953;SDS011;57276;51.364;12.376;2023-08-01T10:22:06;2.83;;;0.70;;
69953;SDS011;57276;51.364;12.376;2023-08-01T10:28:09;3.33;;;0.80;;
69953;SDS011;57276;51.364;12.376;2023-08-01T10:34:13;3.65;;;0.85;;
69953;SDS011;57276;51.364;12.376;2023-08-01T10:40:16;3.03;;;0.80;;
69953;SDS011;57276;51.364;12.376;2023-08-01T10:46:18;2.80;;;0.82;;
69953;SDS011;57276;51.364;12.376;2023-08-01T10:52:23;4.40;;;1.20;;
69953;SDS011;57276;51.364;12.376;2023-08-01T10:58:28;4.30;;;1.27;;
69953;SDS011;57276;51.364;12.376;2023-08-01T11:04:29;3.78;;;1.13;;
69953;SDS011;57276;51.364;12.376;2023-08-01T11:10:32;3.83;;;1.03;;
69953;SDS011;57276;51.364;12.376;2023-08-01T11:16:33;5.70;;;1.48;;
69953;SDS011;57276;51.364;12.376;2023-08-01T11:22:36;4.63;;;1.90;;
69953;SDS011;57276;51.364;12.376;2023-08-01T11:28:38;4.23;;;1.90;;
69953;SDS011;57276;51.364;12.376;2023-08-01T11:34:41;4.05;;;1.90;;
69953;SDS011;57276;51.364;12.376;2023-08-01T11:40:52;4.10;;;1.90;;
69953;SDS011;57276;51.364;12.376;2023-08-01T11:46:54;4.85;;;2.00;;
69953;SDS011;57276;51.364;12.376;2023-08-01T11:52:55;3.80;;;1.90;;
69953;SDS011;57276;51.364;12.376;2023-08-01T11:58:57;5.47;;;2.03;;
69953;SDS011;57276;51.364;12.376;2023-08-01T12:04:59;6.05;;;2.47;;
69953;SDS011;57276;51.364;12.376;2023-08-01T12:11:01;6.73;;;2.73;;
69953;SDS011;57276;51.364;12.376;2023-08-01T12:17:03;5.70;;;2.55;;
69953;SDS011;57276;51.364;12.376;2023-08-01T12:23:05;5.95;;;2.70;;
69953;SDS011;57276;51.364;12.376;2023-08-01T12:29:06;6.17;;;2.60;;
69953;SDS011;57276;51.364;12.376;2023-08-01T12:35:09;5.50;;;2.47;;
69953;SDS011;57276;51.364;12.376;2023-08-01T12:41:11;5.43;;;2.50;;
69953;SDS011;57276;51.364;12.376;2023-08-01T12:47:13;5.38;;;2.70;;
69953;SDS011;57276;51.364;12.376;2023-08-01T12:53:15;5.90;;;3.13;;
69953;SDS011;57276;51.364;12.376;2023-08-01T12:59:17;6.13;;;2.80;;
69953;SDS011;57276;51.364;12.376;2023-08-01T13:05:19;5.13;;;2.90;;
69953;SDS011;57276;51.364;12.376;2023-08-01T13:11:22;7.20;;;2.93;;
69953;SDS011;57276;51.364;12.376;2023-08-01T13:17:23;5.35;;;2.92;;
69953;SDS011;57276;51.364;12.376;2023-08-01T13:23:26;6.03;;;3.40;;
69953;SDS011;57276;51.364;12.376;2023-08-01T13:29:29;6.10;;;3.87;;
69953;SDS011;57276;51.364;12.376;2023-08-01T13:35:31;5.45;;;3.47;;
69953;SDS011;57276;51.364;12.376;2023-08-01T13:41:32;8.03;;;3.97;;
69953;SDS011;57276;51.364;12.376;2023-08-01T13:47:34;8.40;;;4.38;;
69953;SDS011;57276;51.364;12.376;2023-08-01T13:53:36;7.32;;;4.30;;
69953;SDS011;57276;51.364;12.376;2023-08-01T13:59:44;5.87;;;3.73;;
69953;SDS011;57276;51.364;12.376;2023-08-01T14:06:04;7.22;;;4.10;;
69953;SDS011;57276;51.364;12.376;2023-08-01T14:12:06;8.27;;;3.70;;
69953;SDS011;57276;51.364;12.376;2023-08-01T14:18:08;8.40;;;4.45;;
69953;SDS011;57276;51.364;12.376;2023-08-01T14:24:12;6.47;;;3.75;;
69953;SDS011;57276;51.364;12.376;2023-08-01T14:30:16;6.83;;;3.50;;
69953;SDS011;57276;51.364;12.376;2023-08-01T14:36:17;5.35;;;3.10;;
69953;SDS011;57276;51.364;12.376;2023-08-01T14:42:19;6.93;;;3.30;;
69953;SDS011;57276;51.364;12.376;2023-08-01T14:48:23;4.75;;;3.15;;
69953;SDS011;57276;51.364;12.376;2023-08-01T14:54:27;6.50;;;3.17;;
69953;SDS011;57276;51.364;12.376;2023-08-01T15:00:40;5.00;;;3.00;;
69953;SDS011;57276;51.364;12.376;2023-08-01T15:06:42;5.55;;;2.50;;
69953;SDS011;57276;51.364;12.376;2023-08-01T15:12:44;3.83;;;2.10;;
69953;SDS011;57276;51.364;12.376;2023-08-01T15:18:46;4.60;;;1.90;;
69953;SDS011;57276;51.364;12.376;2023-08-01T15:24:48;4.35;;;1.90;;
69953;SDS011;57276;51.364;12.376;2023-08-01T15:30:50;4.23;;;1.83;;
69953;SDS011;57276;51.364;12.376;2023-08-01T15:36:51;4.95;;;2.00;;
69953;SDS011;57276;51.364;12.376;2023-08-01T15:42:54;4.30;;;1.90;;
69953;SDS011;57276;51.364;12.376;2023-08-01T15:48:56;4.85;;;1.90;;
69953;SDS011;57276;51.364;12.376;2023-08-01T15:54:58;6.10;;;2.00;;
69953;SDS011;57276;51.364;12.376;2023-08-01T16:01:00;5.83;;;2.10;;
69953;SDS011;57276;51.364;12.376;2023-08-01T16:07:02;6.03;;;2.03;;
69953;SDS011;57276;51.364;12.376;2023-08-01T16:13:04;5.10;;;2.00;;
69953;SDS011;57276;51.364;12.376;2023-08-01T16:19:06;3.88;;;1.60;;
69953;SDS011;57276;51.364;12.376;2023-08-01T16:25:09;4.20;;;1.65;;
69953;SDS011;57276;51.364;12.376;2023-08-01T16:31:12;4.07;;;1.77;;
69953;SDS011;57276;51.364;12.376;2023-08-01T16:37:13;4.07;;;1.70;;
69953;SDS011;57276;51.364;12.376;2023-08-01T16:43:15;3.80;;;1.63;;
69953;SDS011;57276;51.364;12.376;2023-08-01T16:49:17;4.03;;;1.48;;
69953;SDS011;57276;51.364;12.376;2023-08-01T16:55:24;5.97;;;1.70;;
69953;SDS011;57276;51.364;12.376;2023-08-01T17:01:26;3.00;;;1.30;;
69953;SDS011;57276;51.364;12.376;2023-08-01T17:07:27;4.68;;;1.40;;
69953;SDS011;57276;51.364;12.376;2023-08-01T17:13:29;3.30;;;1.40;;
69953;SDS011;57276;51.364;12.376;2023-08-01T17:19:30;3.30;;;1.20;;
69953;SDS011;57276;51.364;12.376;2023-08-01T17:25:32;3.20;;;1.30;;
69953;SDS011;57276;51.364;12.376;2023-08-01T17:31:33;4.30;;;1.63;;
69953;SDS011;57276;51.364;12.376;2023-08-01T17:37:35;5.60;;;1.65;;
69953;SDS011;57276;51.364;12.376;2023-08-01T17:43:37;3.40;;;1.50;;
69953;SDS011;57276;51.364;12.376;2023-08-01T17:49:38;3.58;;;1.42;;
69953;SDS011;57276;51.364;12.376;2023-08-01T17:55:40;3.75;;;1.17;;
69953;SDS011;57276;51.364;12.376;2023-08-01T18:01:42;3.43;;;1.40;;
69953;SDS011;57276;51.364;12.376;2023-08-01T18:07:43;3.95;;;1.50;;
69953;SDS011;57276;51.364;12.376;2023-08-01T18:13:46;4.23;;;1.40;;
69953;SDS011;57276;51.364;12.376;2023-08-01T18:19:49;7.38;;;1.42;;
69953;SDS011;57276;51.364;12.376;2023-08-01T18:25:51;4.35;;;1.50;;
69953;SDS011;57276;51.364;12.376;2023-08-01T18:31:54;4.60;;;1.47;;
69953;SDS011;57276;51.364;12.376;2023-08-01T18:37:56;4.05;;;1.40;;
69953;SDS011;57276;51.364;12.376;2023-08-01T18:43:58;4.50;;;1.93;;
69953;SDS011;57276;51.364;12.376;2023-08-01T18:49:59;5.63;;;1.60;;
69953;SDS011;57276;51.364;12.376;2023-08-01T18:56:05;5.00;;;1.60;;
69953;SDS011;57276;51.364;12.376;2023-08-01T19:02:11;3.33;;;1.30;;
69953;SDS011;57276;51.364;12.376;2023-08-01T19:08:14;4.80;;;1.40;;
69953;SDS011;57276;51.364;12.376;2023-08-01T19:14:15;3.80;;;1.47;;
69953;SDS011;57276;51.364;12.376;2023-08-01T19:20:17;3.63;;;1.10;;
69953;SDS011;57276;51.364;12.376;2023-08-01T19:26:20;3.03;;;1.00;;
69953;SDS011;57276;51.364;12.376;2023-08-01T19:32:23;2.93;;;1.00;;
69953;SDS011;57276;51.364;12.376;2023-08-01T19:38:24;3.00;;;1.10;;
69953;SDS011;57276;51.364;12.376;2023-08-01T19:44:27;4.70;;;1.20;;
69953;SDS011;57276;51.364;12.376;2023-08-01T19:50:31;4.25;;;1.38;;
69953;SDS011;57276;51.364;12.376;2023-08-01T19:56:33;3.38;;;1.33;;
69953;SDS011;57276;51.364;12.376;2023-08-01T20:02:34;4.30;;;1.40;;
69953;SDS011;57276;51.364;12.376;2023-08-01T20:08:41;5.07;;;1.48;;
69953;SDS011;57276;51.364;12.376;2023-08-01T20:14:44;3.67;;;1.30;;
69953;SDS011;57276;51.364;12.376;2023-08-01T20:20:50;5.20;;;1.60;;
69953;SDS011;57276;51.364;12.376;2023-08-01T20:26:54;3.80;;;1.60;;
69953;SDS011;57276;51.364;12.376;2023-08-01T20:32:55;3.70;;;1.47;;
69953;SDS011;57276;51.364;12.376;2023-08-01T20:38:57;3.83;;;1.50;;
69953;SDS011;57276;51.364;12.376;2023-08-01T20:44:58;4.53;;;1.50;;
69953;SDS011;57276;51.364;12.376;2023-08-01T20:51:00;5.65;;;1.70;;
69953;SDS011;57276;51.364;12.376;2023-08-01T20:57:02;4.80;;;1.50;;
69953;SDS011;57276;51.364;12.376;2023-08-01T21:03:04;4.90;;;1.40;;
69953;SDS011;57276;51.364;12.376;2023-08-01T21:09:06;3.97;;;1.60;;
69953;SDS011;57276;51.364;12.376;2023-08-01T21:15:07;4.40;;;1.60;;
69953;SDS011;57276;51.364;12.376;2023-08-01T21:21:09;6.50;;;1.55;;
69953;SDS011;57276;51.364;12.376;2023-08-01T21:27:11;5.50;;;1.70;;
69953;SDS011;57276;51.364;12.376;2023-08-01T21:33:13;3.60;;;1.67;;
69953;SDS011;57276;51.364;12.376;2023-08-01T21:39:15;4.07;;;1.63;;
69953;SDS011;57276;51.364;12.376;2023-08-01T21:45:16;3.80;;;1.60;;
69953;SDS011;57276;51.364;12.376;2023-08-01T21:51:19;4.82;;;1.55;;
69953;SDS011;57276;51.364;12.376;2023-08-01T21:57:21;5.30;;;1.77;;
69953;SDS011;57276;51.364;12.376;2023-08-01T22:03:24;4.07;;;1.60;;
69953;SDS011;57276;51.364;12.376;2023-08-01T22:09:25;5.95;;;1.63;;
69953;SDS011;57276;51.364;12.376;2023-08-01T22:15:27;4.00;;;1.40;;
69953;SDS011;57276;51.364;12.376;2023-08-01T22:21:30;5.60;;;1.90;;
69953;SDS011;57276;51.364;12.376;2023-08-01T22:27:34;3.75;;;1.40;;
69953;SDS011;57276;51.364;12.376;2023-08-01T22:33:37;3.53;;;1.70;;
69953;SDS011;57276;51.364;12.376;2023-08-01T22:39:38;3.50;;;1.58;;
69953;SDS011;57276;51.364;12.376;2023-08-01T22:45:40;4.07;;;1.70;;
69953;SDS011;57276;51.364;12.376;2023-08-01T22:51:42;3.88;;;1.65;;
69953;SDS011;57276;51.364;12.376;2023-08-01T22:57:43;4.00;;;1.52;;
69953;SDS011;57276;51.364;12.376;2023-08-01T23:03:46;4.87;;;1.73;;
69953;SDS011;57276;51.364;12.376;2023-08-01T23:09:50;5.15;;;1.50;;
69953;SDS011;57276;51.364;12.376;2023-08-01T23:15:53;4.47;;;1.60;;
69953;SDS011;57276;51.364;12.376;2023-08-01T23:21:55;3.30;;;1.40;;
69953;SDS011;57276;51.364;12.376;2023-08-01T23:27:57;5.30;;;1.73;;
69953;SDS011;57276;51.364;12.376;2023-08-01T23:33:59;4.10;;;1.50;;
69953;SDS011;57276;51.364;12.376;2023-08-01T23:40:01;4.30;;;1.30;;
69953;SDS011;57276;51.364;12.376;2023-08-01T23:46:03;5.97;;;1.43;;
69953;SDS011;57276;51.364;12.376;2023-08-01T23:52:05;3.50;;;1.30;;
69953;SDS011;57276;51.364;12.376;2023-08-01T23:58:06;5.65;;;1.58;;
